KHSV/HSV METAR and TAF weather

Enter ICAO airport designator
Station Type Date Time Source
KHSV METAR 2021/08/05 04:53 UTC NOAA

KHSV 050453Z 00000KT 10SM CLR 19/17 A3007 RMK AO2 SLP176 T01940172


Station Type Date Time Source
KHSV Decoded METAR 2021/08/05 04:53 UTC NOAA

HUNTSVILLE INTERNATIONAL JONES FIELD, AL, United States (KHSV) 34-39N 086-47W 191M
Aug 05, 2021 - 12:53 AM EDT / 2021.08.05 0453 UTC
Wind: Calm:0
Visibility: 10 mile(s):0
Sky conditions: clear
Temperature: 66.9 F (19.4 C)
Dew Point: 63.0 F (17.2 C)
Relative Humidity: 87%
Pressure (altimeter): 30.07 in. Hg (1018 hPa)
ob: KHSV 050453Z 00000KT 10SM CLR 19/17 A3007 RMK AO2 SLP176 T01940172
cycle: 5

Station Type Date Time Source
KHSV TAF 2021/08/05 06:22 UTC NOAA

TAF KHSV 050520Z 0506/0606 VRB03KT P6SM SKC
FM051500 VRB04KT P6SM SCT250

Example: see airport list